createdAt,value
2023-05-26T00:01:31.636Z,8.30
2023-05-26T00:03:58.355Z,8.28
2023-05-26T00:06:25.139Z,8.28
2023-05-26T00:08:51.744Z,8.23
2023-05-26T00:11:18.414Z,8.19
2023-05-26T00:13:45.128Z,8.16
2023-05-26T00:16:11.727Z,8.12
2023-05-26T00:18:38.231Z,8.07
2023-05-26T00:21:05.087Z,8.08
2023-05-26T00:23:31.769Z,8.07
2023-05-26T00:25:58.276Z,8.06
2023-05-26T00:28:24.810Z,8.07
2023-05-26T00:30:51.470Z,8.04
2023-05-26T00:33:18.131Z,7.98
2023-05-26T00:35:44.758Z,7.98
2023-05-26T00:38:11.450Z,7.93
2023-05-26T00:40:38.147Z,7.93
2023-05-26T00:43:04.661Z,7.91
2023-05-26T00:45:31.321Z,7.86
2023-05-26T00:47:57.872Z,7.86
2023-05-26T00:50:24.670Z,7.78
2023-05-26T00:52:52.237Z,7.78
2023-05-26T00:55:20.144Z,7.77
2023-05-26T00:57:46.801Z,7.77
2023-05-26T01:00:14.413Z,7.71
2023-05-26T01:02:41.311Z,7.69
2023-05-26T01:05:09.426Z,7.70
2023-05-26T01:07:37.621Z,7.68
2023-05-26T01:10:05.057Z,7.62
2023-05-26T01:13:09.202Z,7.65
2023-05-26T01:15:43.860Z,7.60
2023-05-26T01:18:14.920Z,7.58
2023-05-26T01:20:50.076Z,7.56
2023-05-26T01:23:35.579Z,7.55
2023-05-26T01:26:34.361Z,7.49
2023-05-26T01:29:06.675Z,7.49
2023-05-26T01:31:35.913Z,7.48
2023-05-26T01:34:03.380Z,7.44
2023-05-26T01:36:30.425Z,7.40
2023-05-26T01:38:57.299Z,7.38
2023-05-26T01:41:45.857Z,7.37
2023-05-26T01:44:42.157Z,7.36
2023-05-26T01:47:09.252Z,7.34
2023-05-26T01:49:40.953Z,7.28
2023-05-26T01:52:11.245Z,7.29
2023-05-26T01:54:45.861Z,7.24
2023-05-26T01:57:13.871Z,7.22
2023-05-26T01:59:40.910Z,7.21
2023-05-26T02:02:07.633Z,7.20
2023-05-26T02:04:34.558Z,7.16
2023-05-26T02:07:04.040Z,7.13
2023-05-26T02:09:33.342Z,7.10
2023-05-26T02:12:00.155Z,7.11
2023-05-26T02:14:26.637Z,7.09
2023-05-26T02:16:54.064Z,7.07
2023-05-26T02:19:20.576Z,7.04
2023-05-26T02:21:47.151Z,7.01
2023-05-26T02:24:13.638Z,6.99
2023-05-26T02:26:40.187Z,6.98
2023-05-26T02:29:06.757Z,6.97
2023-05-26T02:31:42.003Z,6.96
2023-05-26T02:34:11.337Z,6.96
2023-05-26T02:36:37.926Z,6.95
2023-05-26T02:39:04.416Z,6.91
2023-05-26T02:41:30.904Z,6.87
2023-05-26T02:43:57.432Z,6.86
2023-05-26T02:46:23.997Z,6.86
2023-05-26T02:48:50.556Z,6.85
2023-05-26T02:51:17.068Z,6.82
2023-05-26T02:53:44.906Z,6.80
2023-05-26T02:56:11.627Z,6.77
2023-05-26T02:58:38.207Z,6.77
2023-05-26T03:01:04.777Z,6.81
2023-05-26T03:03:31.518Z,6.79
2023-05-26T03:05:59.968Z,6.76
2023-05-26T03:08:26.631Z,6.73
2023-05-26T03:11:10.099Z,6.72
2023-05-26T03:13:38.217Z,6.70
2023-05-26T03:16:05.455Z,6.67
2023-05-26T03:18:33.406Z,6.68
2023-05-26T03:21:00.053Z,6.68
2023-05-26T03:23:26.591Z,6.70
2023-05-26T03:25:53.130Z,6.71
2023-05-26T03:28:19.690Z,6.69
2023-05-26T03:30:46.193Z,6.65
2023-05-26T03:33:12.747Z,6.70
2023-05-26T03:35:39.327Z,6.73
2023-05-26T03:38:05.916Z,6.71
2023-05-26T03:40:32.465Z,6.73
2023-05-26T03:42:58.996Z,6.77
2023-05-26T03:45:25.516Z,6.79
2023-05-26T03:47:52.223Z,6.79
2023-05-26T03:50:18.865Z,6.81
2023-05-26T03:52:45.809Z,6.80
2023-05-26T03:55:12.720Z,6.83
2023-05-26T03:57:39.721Z,6.83
2023-05-26T04:00:08.494Z,6.85
2023-05-26T04:02:35.399Z,6.81
2023-05-26T04:05:02.110Z,6.79
2023-05-26T04:07:28.687Z,6.79
2023-05-26T04:09:55.482Z,6.80
2023-05-26T04:12:23.603Z,6.81
2023-05-26T04:14:50.126Z,6.80
2023-05-26T04:17:19.661Z,6.85
2023-05-26T04:19:46.192Z,6.90
2023-05-26T04:22:13.464Z,6.94
2023-05-26T04:24:39.958Z,6.95
2023-05-26T04:27:08.792Z,7.02
2023-05-26T04:29:35.505Z,7.12
2023-05-26T04:32:02.218Z,7.22
2023-05-26T04:34:29.697Z,7.28
2023-05-26T04:36:57.084Z,7.31
2023-05-26T04:39:23.701Z,7.43
2023-05-26T04:41:51.123Z,7.43
2023-05-26T04:44:19.726Z,7.53
2023-05-26T04:46:47.178Z,7.61
2023-05-26T04:49:13.937Z,7.67
2023-05-26T04:51:40.526Z,7.68
2023-05-26T04:54:07.073Z,7.68
2023-05-26T04:56:33.761Z,7.65
2023-05-26T04:59:00.590Z,7.70
2023-05-26T05:01:27.370Z,7.82
2023-05-26T05:03:54.005Z,7.87
2023-05-26T05:06:20.742Z,7.94
2023-05-26T05:08:47.484Z,8.06
2023-05-26T05:11:14.103Z,8.17
2023-05-26T05:13:40.818Z,8.26
2023-05-26T05:16:07.766Z,8.40
2023-05-26T05:18:34.354Z,8.49
2023-05-26T05:21:01.059Z,8.59
2023-05-26T05:23:27.806Z,8.66
2023-05-26T05:25:54.438Z,8.72
2023-05-26T05:28:20.990Z,8.86
2023-05-26T05:30:47.873Z,8.98
2023-05-26T05:33:15.155Z,9.07
2023-05-26T05:35:41.758Z,9.06
2023-05-26T05:38:08.487Z,9.16
2023-05-26T05:40:35.150Z,9.29
2023-05-26T05:43:02.125Z,9.27
2023-05-26T05:45:29.043Z,9.31
2023-05-26T05:47:56.107Z,9.40
2023-05-26T05:50:22.813Z,9.48
2023-05-26T05:52:49.354Z,9.49
2023-05-26T05:55:16.310Z,9.43
2023-05-26T05:57:42.992Z,9.43
2023-05-26T06:00:10.886Z,9.48
2023-05-26T06:02:38.098Z,9.51
2023-05-26T06:05:05.151Z,9.55
2023-05-26T06:07:31.696Z,9.60
2023-05-26T06:09:58.355Z,9.67
2023-05-26T06:12:25.280Z,9.61
2023-05-26T06:14:52.064Z,9.61
2023-05-26T06:17:18.577Z,9.64
2023-05-26T06:19:45.085Z,9.65
2023-05-26T06:22:11.620Z,9.71
2023-05-26T06:24:38.241Z,9.71
2023-05-26T06:27:05.235Z,9.79
2023-05-26T06:29:31.776Z,9.84
2023-05-26T06:31:58.313Z,9.93
2023-05-26T06:34:24.943Z,9.91
2023-05-26T06:36:52.217Z,9.97
2023-05-26T06:39:18.784Z,10.05
2023-05-26T06:41:45.379Z,10.10
2023-05-26T06:44:11.944Z,10.28
2023-05-26T06:46:38.480Z,10.38
2023-05-26T06:49:05.071Z,10.52
2023-05-26T06:51:31.827Z,10.64
2023-05-26T06:53:58.547Z,10.70
2023-05-26T06:56:28.603Z,10.73
2023-05-26T06:58:55.209Z,11.01
2023-05-26T07:01:21.774Z,11.15
2023-05-26T07:03:48.803Z,11.27
2023-05-26T07:06:15.385Z,11.26
2023-05-26T07:08:41.948Z,11.34
2023-05-26T07:11:11.487Z,11.47
2023-05-26T07:13:37.964Z,11.68
2023-05-26T07:16:04.706Z,11.58
2023-05-26T07:18:31.245Z,11.58
2023-05-26T07:20:57.816Z,11.70
2023-05-26T07:23:24.502Z,11.72
2023-05-26T07:25:51.195Z,11.81
2023-05-26T07:28:17.711Z,11.85
2023-05-26T07:30:44.434Z,11.92
2023-05-26T07:33:12.377Z,12.27
2023-05-26T07:35:38.983Z,14.26
2023-05-26T07:38:05.778Z,16.73
2023-05-26T07:40:35.903Z,17.57
2023-05-26T07:43:03.617Z,18.60
2023-05-26T07:45:30.259Z,19.11
2023-05-26T07:47:56.837Z,19.70
2023-05-26T07:50:23.419Z,20.65
2023-05-26T07:52:50.150Z,21.33
2023-05-26T07:55:16.737Z,21.58
2023-05-26T07:57:43.417Z,21.54
2023-05-26T08:00:11.918Z,21.47
2023-05-26T08:02:41.455Z,21.73
2023-05-26T08:05:08.575Z,22.27
2023-05-26T08:07:35.309Z,22.25
2023-05-26T08:10:04.390Z,22.73
2023-05-26T08:12:31.017Z,23.59
2023-05-26T08:14:58.306Z,23.60
2023-05-26T08:17:25.350Z,22.94
2023-05-26T08:19:52.290Z,22.39
2023-05-26T08:22:18.850Z,22.73
2023-05-26T08:24:45.444Z,23.63
2023-05-26T08:27:11.971Z,23.34
2023-05-26T08:29:38.522Z,23.16
2023-05-26T08:32:05.609Z,23.43
2023-05-26T08:34:32.188Z,23.73
2023-05-26T08:36:58.768Z,23.17
2023-05-26T08:39:25.416Z,23.68
2023-05-26T08:42:01.076Z,24.59
2023-05-26T08:44:27.893Z,23.93
2023-05-26T08:46:56.893Z,24.67
2023-05-26T08:49:25.253Z,24.68
2023-05-26T08:52:07.620Z,24.50
2023-05-26T08:54:34.353Z,24.05
2023-05-26T08:57:04.196Z,24.25
2023-05-26T08:59:32.754Z,24.76
2023-05-26T09:02:00.179Z,24.08
2023-05-26T09:04:27.257Z,23.65
2023-05-26T09:07:08.660Z,23.38
2023-05-26T09:09:41.680Z,22.99
2023-05-26T09:12:12.791Z,23.06
2023-05-26T09:14:41.195Z,23.21
2023-05-26T09:17:07.847Z,22.72
2023-05-26T09:19:34.737Z,22.79
2023-05-26T09:22:10.044Z,23.08
2023-05-26T09:24:50.632Z,23.20
2023-05-26T09:27:18.731Z,22.32
2023-05-26T09:29:55.806Z,22.47
2023-05-26T09:32:27.382Z,21.16
2023-05-26T09:34:59.896Z,21.47
2023-05-26T09:37:29.350Z,21.88
2023-05-26T09:40:06.953Z,22.07
2023-05-26T09:42:33.565Z,21.99
2023-05-26T09:45:02.844Z,21.55
2023-05-26T09:47:34.348Z,21.91
2023-05-26T09:50:06.084Z,21.63
2023-05-26T09:52:34.366Z,21.40
2023-05-26T09:55:01.294Z,20.44
2023-05-26T09:57:29.850Z,20.56
2023-05-26T09:59:58.285Z,20.97
2023-05-26T10:02:27.721Z,20.84
2023-05-26T10:04:54.726Z,20.17
2023-05-26T10:07:22.385Z,20.22
2023-05-26T10:09:54.387Z,20.62
2023-05-26T10:12:31.535Z,21.12
2023-05-26T10:14:58.697Z,20.82
2023-05-26T10:17:30.061Z,20.77
2023-05-26T10:19:59.485Z,20.80
2023-05-26T10:22:29.579Z,20.70
2023-05-26T10:25:04.257Z,20.99
2023-05-26T10:27:51.988Z,21.20
2023-05-26T10:30:21.379Z,20.66
2023-05-26T10:32:49.070Z,21.06
2023-05-26T10:35:32.722Z,20.37
2023-05-26T10:38:02.257Z,20.09
2023-05-26T10:40:43.959Z,20.02
2023-05-26T10:43:23.497Z,20.40
2023-05-26T10:46:00.266Z,20.40
2023-05-26T10:48:36.376Z,20.78
2023-05-26T10:51:03.017Z,21.13
2023-05-26T10:53:40.503Z,21.08
2023-05-26T10:56:09.914Z,20.72
2023-05-26T10:58:48.519Z,20.76
2023-05-26T11:01:36.405Z,20.94
2023-05-26T11:04:06.066Z,20.67
2023-05-26T11:06:46.268Z,20.57
2023-05-26T11:09:13.058Z,20.84
2023-05-26T11:11:51.346Z,20.90
2023-05-26T11:14:42.659Z,20.87
2023-05-26T11:17:09.235Z,20.84
2023-05-26T11:19:38.284Z,20.75
2023-05-26T11:22:08.165Z,20.17
2023-05-26T11:24:35.151Z,20.50
2023-05-26T11:27:06.936Z,20.73
2023-05-26T11:29:33.933Z,20.55
2023-05-26T11:32:00.794Z,20.53
2023-05-26T11:34:27.668Z,20.98
2023-05-26T11:36:55.103Z,21.16
2023-05-26T11:39:23.062Z,21.41
2023-05-26T11:41:50.334Z,21.42
2023-05-26T11:44:17.166Z,21.15
2023-05-26T11:46:45.365Z,21.03
2023-05-26T11:49:21.305Z,20.98
2023-05-26T11:51:52.132Z,21.03
2023-05-26T11:54:20.351Z,21.16
2023-05-26T11:56:47.866Z,21.32
2023-05-26T11:59:21.469Z,20.97
2023-05-26T12:01:49.690Z,21.12
2023-05-26T12:04:27.808Z,21.15
2023-05-26T12:06:55.432Z,20.88
2023-05-26T12:09:24.032Z,20.80
2023-05-26T12:11:54.466Z,20.88
2023-05-26T12:14:23.712Z,20.99
2023-05-26T12:16:52.889Z,21.32
2023-05-26T12:19:21.774Z,21.59
2023-05-26T12:22:01.195Z,21.69
2023-05-26T12:24:36.747Z,21.68
2023-05-26T12:27:21.514Z,21.49
2023-05-26T12:29:48.164Z,21.33
2023-05-26T12:32:14.745Z,21.52
2023-05-26T12:34:42.776Z,21.41
2023-05-26T12:37:09.350Z,21.56
2023-05-26T12:39:36.932Z,21.61
2023-05-26T12:42:03.952Z,21.55
2023-05-26T12:44:30.655Z,21.46
2023-05-26T12:46:57.343Z,21.65
2023-05-26T12:49:24.012Z,21.74
2023-05-26T12:51:50.517Z,21.80
2023-05-26T12:54:17.122Z,21.85
2023-05-26T12:56:43.745Z,21.81
2023-05-26T12:59:19.111Z,21.73
2023-05-26T13:01:47.837Z,21.86
2023-05-26T13:04:14.978Z,22.09
2023-05-26T13:06:41.715Z,22.18
2023-05-26T13:09:08.494Z,22.31
2023-05-26T13:11:35.183Z,22.21
2023-05-26T13:14:01.723Z,22.36
2023-05-26T13:16:28.306Z,22.02
2023-05-26T13:18:54.939Z,21.95
2023-05-26T13:21:21.684Z,21.84
2023-05-26T13:23:52.544Z,22.12
2023-05-26T13:26:19.677Z,21.99
2023-05-26T13:28:46.321Z,21.92
2023-05-26T13:31:12.968Z,21.93
2023-05-26T13:33:39.558Z,22.05
2023-05-26T13:36:06.477Z,21.48
2023-05-26T13:38:32.963Z,21.58
2023-05-26T13:41:00.150Z,21.64
2023-05-26T13:43:27.440Z,21.91
2023-05-26T13:45:54.824Z,21.94
2023-05-26T13:48:23.489Z,21.88
2023-05-26T13:50:50.101Z,21.90
2023-05-26T13:53:16.760Z,21.83
2023-05-26T13:55:45.254Z,21.82
2023-05-26T13:58:11.895Z,21.65
2023-05-26T14:00:38.424Z,21.83
2023-05-26T14:03:05.736Z,21.87
2023-05-26T14:05:32.759Z,21.56
2023-05-26T14:07:59.417Z,21.45
2023-05-26T14:10:28.223Z,21.61
2023-05-26T14:12:54.873Z,21.62
2023-05-26T14:15:21.409Z,21.64
2023-05-26T14:17:56.379Z,21.52
2023-05-26T14:21:50.212Z,21.39
2023-05-26T14:23:23.691Z,21.22
2023-05-26T14:25:51.203Z,21.37
2023-05-26T14:28:17.965Z,21.30
2023-05-26T14:30:44.524Z,21.05
2023-05-26T14:33:11.233Z,21.12
2023-05-26T14:35:37.869Z,20.90
2023-05-26T14:38:04.532Z,21.06
2023-05-26T14:40:32.618Z,21.12
2023-05-26T14:42:59.369Z,21.12
2023-05-26T14:45:26.405Z,21.05
2023-05-26T14:47:53.697Z,20.93
2023-05-26T14:50:22.801Z,21.17
2023-05-26T14:52:50.148Z,20.90
2023-05-26T14:55:18.413Z,20.71
2023-05-26T14:57:45.241Z,20.75
2023-05-26T15:00:13.126Z,20.76
2023-05-26T15:02:40.592Z,20.77
2023-05-26T15:05:09.199Z,20.81
2023-05-26T15:07:35.914Z,20.87
2023-05-26T15:10:03.107Z,20.63
2023-05-26T15:12:29.768Z,20.58
2023-05-26T15:14:57.410Z,20.57
2023-05-26T15:17:23.931Z,20.31
2023-05-26T15:19:50.867Z,20.15
2023-05-26T15:22:17.803Z,20.22
2023-05-26T15:24:44.365Z,20.31
2023-05-26T15:27:12.509Z,20.28
2023-05-26T15:29:42.562Z,20.19
2023-05-26T15:32:09.277Z,20.18
2023-05-26T15:34:35.897Z,20.15
2023-05-26T15:37:02.483Z,20.10
2023-05-26T15:39:29.268Z,20.11
2023-05-26T15:41:55.980Z,20.13
2023-05-26T15:44:22.717Z,19.90
2023-05-26T15:46:49.262Z,19.89
2023-05-26T15:49:16.513Z,19.89
2023-05-26T15:51:43.049Z,20.07
2023-05-26T15:54:09.555Z,20.00
2023-05-26T15:56:36.265Z,19.87
2023-05-26T15:59:02.792Z,19.85
2023-05-26T16:01:29.693Z,19.81
2023-05-26T16:03:56.450Z,19.77
2023-05-26T16:06:23.689Z,19.70
2023-05-26T16:08:50.429Z,19.75
2023-05-26T16:11:17.400Z,19.64
2023-05-26T16:13:44.256Z,19.61
2023-05-26T16:16:10.958Z,19.60
2023-05-26T16:18:37.751Z,19.56
2023-05-26T16:21:05.587Z,19.44
2023-05-26T16:23:32.211Z,19.68
2023-05-26T16:26:00.177Z,19.69
2023-05-26T16:28:27.255Z,19.38
2023-05-26T16:30:54.192Z,19.29
2023-05-26T16:33:20.915Z,19.39
2023-05-26T16:35:50.741Z,20.03
2023-05-26T16:38:18.366Z,20.83
2023-05-26T16:40:44.939Z,21.00
2023-05-26T16:43:17.144Z,21.45
2023-05-26T16:45:46.683Z,21.64
2023-05-26T16:48:13.276Z,21.39
2023-05-26T16:50:40.006Z,21.13
2023-05-26T16:53:10.881Z,21.41
2023-05-26T16:55:38.263Z,21.22
2023-05-26T16:58:05.891Z,20.82
2023-05-26T17:00:32.831Z,20.37
2023-05-26T17:02:59.640Z,20.46
2023-05-26T17:05:26.380Z,20.63
2023-05-26T17:07:53.072Z,20.97
2023-05-26T17:10:19.786Z,20.97
2023-05-26T17:12:46.333Z,20.15
2023-05-26T17:15:12.866Z,19.37
2023-05-26T17:17:39.427Z,18.97
2023-05-26T17:20:06.509Z,18.71
2023-05-26T17:22:33.154Z,18.40
2023-05-26T17:24:59.699Z,18.16
2023-05-26T17:27:26.528Z,18.00
2023-05-26T17:29:53.048Z,17.86
2023-05-26T17:32:19.714Z,17.73
2023-05-26T17:34:46.309Z,17.62
2023-05-26T17:37:14.768Z,17.42
2023-05-26T17:39:42.083Z,17.30
2023-05-26T17:42:09.220Z,17.11
2023-05-26T17:44:36.303Z,16.96
2023-05-26T17:47:04.104Z,16.87
2023-05-26T17:49:30.725Z,16.69
2023-05-26T17:51:57.209Z,16.54
2023-05-26T17:54:29.074Z,16.41
2023-05-26T17:56:57.254Z,16.38
2023-05-26T17:59:24.954Z,16.27
2023-05-26T18:01:51.898Z,16.16
2023-05-26T18:04:18.634Z,16.11
2023-05-26T18:06:45.381Z,16.05
2023-05-26T18:09:11.997Z,15.93
2023-05-26T18:11:38.571Z,15.82
2023-05-26T18:14:05.149Z,15.67
2023-05-26T18:16:32.218Z,15.60
2023-05-26T18:18:59.911Z,15.62
2023-05-26T18:21:27.133Z,15.57
2023-05-26T18:23:53.954Z,15.75
2023-05-26T18:26:23.046Z,15.74
2023-05-26T18:28:50.457Z,15.98
2023-05-26T18:31:16.999Z,15.75
2023-05-26T18:33:43.557Z,15.55
2023-05-26T18:36:10.295Z,15.34
2023-05-26T18:38:37.066Z,15.18
2023-05-26T18:41:03.714Z,14.95
2023-05-26T18:43:30.542Z,14.79
2023-05-26T18:45:57.158Z,14.65
2023-05-26T18:48:23.851Z,14.57
2023-05-26T18:50:50.730Z,14.51
2023-05-26T18:53:17.281Z,14.45
2023-05-26T18:55:44.045Z,14.39
2023-05-26T18:58:10.759Z,14.25
2023-05-26T19:00:39.918Z,14.19
2023-05-26T19:03:07.338Z,14.15
2023-05-26T19:05:34.160Z,14.06
2023-05-26T19:08:00.824Z,13.98
2023-05-26T19:10:27.446Z,13.91
2023-05-26T19:12:54.009Z,13.74
2023-05-26T19:15:20.585Z,13.72
2023-05-26T19:17:47.226Z,13.65
2023-05-26T19:20:14.033Z,13.58
2023-05-26T19:22:41.512Z,13.54
2023-05-26T19:25:08.653Z,13.44
2023-05-26T19:27:35.229Z,13.35
2023-05-26T19:30:01.933Z,13.27
2023-05-26T19:32:29.536Z,13.22
2023-05-26T19:34:56.057Z,13.16
2023-05-26T19:37:22.603Z,13.11
2023-05-26T19:39:49.098Z,13.00
2023-05-26T19:42:16.921Z,12.91
2023-05-26T19:44:43.596Z,12.86
2023-05-26T19:47:10.197Z,12.75
2023-05-26T19:49:36.885Z,12.71
2023-05-26T19:52:03.703Z,12.65
2023-05-26T19:54:30.423Z,12.61
2023-05-26T19:56:57.239Z,12.54
2023-05-26T19:59:24.046Z,12.46
2023-05-26T20:01:50.592Z,12.44
2023-05-26T20:04:17.186Z,12.33
2023-05-26T20:06:44.225Z,12.32
2023-05-26T20:09:11.183Z,12.27
2023-05-26T20:11:37.718Z,12.25
2023-05-26T20:14:05.063Z,12.15
2023-05-26T20:16:32.498Z,12.09
2023-05-26T20:19:00.038Z,12.00
2023-05-26T20:21:26.677Z,11.94
2023-05-26T20:23:53.379Z,11.95
2023-05-26T20:26:20.015Z,11.86
2023-05-26T20:28:49.050Z,11.81
2023-05-26T20:31:18.615Z,11.75
2023-05-26T20:33:46.541Z,11.70
2023-05-26T20:36:14.089Z,11.68
2023-05-26T20:38:41.546Z,11.64
2023-05-26T20:41:08.835Z,11.61
2023-05-26T20:43:35.482Z,11.54
2023-05-26T20:46:02.282Z,11.50
2023-05-26T20:48:28.885Z,11.49
2023-05-26T20:50:55.674Z,11.45
2023-05-26T20:53:22.614Z,11.37
2023-05-26T20:55:49.178Z,11.32
2023-05-26T20:58:15.957Z,11.26
2023-05-26T21:00:42.463Z,11.23
2023-05-26T21:03:09.113Z,11.16
2023-05-26T21:05:36.087Z,11.13
2023-05-26T21:08:02.696Z,11.08
2023-05-26T21:10:29.171Z,11.05
2023-05-26T21:12:56.240Z,11.01
2023-05-26T21:15:22.998Z,10.96
2023-05-26T21:17:49.716Z,10.92
2023-05-26T21:20:16.560Z,10.88
2023-05-26T21:22:43.113Z,10.84
2023-05-26T21:25:09.930Z,10.81
2023-05-26T21:27:36.569Z,10.71
2023-05-26T21:30:04.017Z,10.71
2023-05-26T21:32:30.667Z,10.66
2023-05-26T21:34:57.203Z,10.65
2023-05-26T21:37:23.713Z,10.60
2023-05-26T21:39:50.233Z,10.56
2023-05-26T21:42:16.720Z,10.51
2023-05-26T21:44:43.252Z,10.45
2023-05-26T21:47:09.747Z,10.43
2023-05-26T21:49:36.293Z,10.36
2023-05-26T21:52:03.686Z,10.33
2023-05-26T21:54:30.426Z,10.27
2023-05-26T21:56:56.983Z,10.23
2023-05-26T21:59:23.522Z,10.19
2023-05-26T22:01:50.214Z,10.14
2023-05-26T22:04:16.864Z,10.08
2023-05-26T22:06:43.451Z,10.06
2023-05-26T22:09:09.973Z,10.03
2023-05-26T22:11:36.491Z,9.98
2023-05-26T22:14:10.222Z,9.92
2023-05-26T22:16:44.152Z,9.89
2023-05-26T22:19:11.429Z,9.87
2023-05-26T22:21:37.957Z,9.84
2023-05-26T22:24:04.715Z,9.79
2023-05-26T22:26:31.289Z,9.75
2023-05-26T22:28:57.903Z,9.73
2023-05-26T22:31:24.911Z,9.70
2023-05-26T22:33:51.508Z,9.69
2023-05-26T22:36:17.986Z,9.63
2023-05-26T22:38:44.504Z,9.61
2023-05-26T22:41:11.054Z,9.56
2023-05-26T22:43:37.535Z,9.52
2023-05-26T22:46:04.170Z,9.49
2023-05-26T22:48:30.938Z,9.39
2023-05-26T22:50:58.033Z,9.37
2023-05-26T22:53:24.660Z,9.36
2023-05-26T22:56:00.363Z,9.32
2023-05-26T22:58:35.709Z,9.26
2023-05-26T23:01:02.864Z,9.22
2023-05-26T23:03:29.492Z,9.17
2023-05-26T23:05:56.771Z,9.13
2023-05-26T23:08:23.532Z,9.06
2023-05-26T23:10:50.221Z,9.02
2023-05-26T23:13:21.581Z,8.97
2023-05-26T23:15:48.189Z,8.93
2023-05-26T23:18:14.714Z,8.89
2023-05-26T23:20:41.292Z,8.87
2023-05-26T23:23:07.815Z,8.84
2023-05-26T23:25:34.461Z,8.82
2023-05-26T23:28:00.984Z,8.78
2023-05-26T23:30:28.034Z,8.74
2023-05-26T23:32:54.601Z,8.69
2023-05-26T23:35:21.234Z,8.68
2023-05-26T23:37:47.730Z,8.62
2023-05-26T23:40:14.220Z,8.58
2023-05-26T23:42:40.793Z,8.57
2023-05-26T23:45:08.225Z,8.50
2023-05-26T23:47:34.918Z,8.49
2023-05-26T23:50:01.916Z,8.45
2023-05-26T23:52:28.512Z,8.40
2023-05-26T23:54:55.092Z,8.39
2023-05-26T23:57:21.600Z,8.35
2023-05-26T23:59:48.065Z,8.30
